EMB0471 SBSJ-SBJP
Flight info
| Callsign | EMB0471 |
|---|---|
| Flight time | 2h 50m |
| Altitude | 39000 |
| Route | NUXEL UZ23 OGSOO UZ35 ISKAG UZ14 ETIBI |
| Aircraft | E35L/M-SABDFGRW/S |
Departure
| Time | 2026-04-30 19:11 |
|---|---|
| Airport | Professor Urbano Ernesto Stumpf Airport (SBSJ) |
Arrival
| Time | 2026-04-30 22:01 |
|---|---|
| Airport | Presidente Castro Pinto International Airport (SBJP) |
| Time | Latitude | Longitude | Altitude | Speed | Heading |
|---|---|---|---|---|---|
| 2026-04-30 18:58 | -23.22516 | -45.86262 | 2138 ft | 0 kts | 135° |
| 2026-04-30 19:05 | -23.22516 | -45.86261 | 2138 ft | 0 kts | 135° |
| 2026-04-30 19:06 | -23.22547 | -45.86284 | 2138 ft | 4 kts | 238° |
| 2026-04-30 19:06 | -23.22539 | -45.86321 | 2138 ft | 7 kts | 314° |
| 2026-04-30 19:06 | -23.22448 | -45.86419 | 2138 ft | 6 kts | 315° |
| 2026-04-30 19:07 | -23.22354 | -45.86522 | 2138 ft | 12 kts | 315° |
| 2026-04-30 19:07 | -23.22283 | -45.86599 | 2138 ft | 15 kts | 315° |
| 2026-04-30 19:08 | -23.22125 | -45.86771 | 2138 ft | 17 kts | 307° |
| 2026-04-30 19:08 | -23.21966 | -45.87020 | 2138 ft | 22 kts | 304° |
| 2026-04-30 19:08 | -23.21920 | -45.87093 | 2138 ft | 6 kts | 300° |
| 2026-04-30 19:09 | -23.21922 | -45.87133 | 2138 ft | 4 kts | 238° |
| 2026-04-30 19:09 | -23.21952 | -45.87167 | 2138 ft | 7 kts | 224° |
| 2026-04-30 19:09 | -23.21981 | -45.87180 | 2138 ft | 5 kts | 157° |
| 2026-04-30 19:10 | -23.21994 | -45.87167 | 2138 ft | 7 kts | 133° |
| 2026-04-30 19:10 | -23.22885 | -45.86196 | 2324 ft | 153 kts | 135° |
| 2026-04-30 19:11 | -23.23656 | -45.85328 | 3118 ft | 167 kts | 134° |
| 2026-04-30 19:11 | -23.25491 | -45.83400 | 4852 ft | 205 kts | 134° |
| 2026-04-30 19:11 | -23.26519 | -45.82265 | 5710 ft | 225 kts | 134° |
| 2026-04-30 19:12 | -23.27644 | -45.81038 | 6626 ft | 237 kts | 134° |
| 2026-04-30 19:12 | -23.28787 | -45.79701 | 7366 ft | 257 kts | 123° |
| 2026-04-30 19:12 | -23.29356 | -45.77793 | 8024 ft | 278 kts | 90° |
| 2026-04-30 19:13 | -23.27557 | -45.74241 | 9926 ft | 287 kts | 30° |
| 2026-04-30 19:13 | -23.23631 | -45.74014 | 11640 ft | 302 kts | 334° |
| 2026-04-30 19:13 | -23.21745 | -45.75009 | 12468 ft | 311 kts | 342° |
| 2026-04-30 19:14 | -23.19566 | -45.75231 | 13251 ft | 324 kts | 2° |
| 2026-04-30 19:14 | -23.17261 | -45.75171 | 14041 ft | 333 kts | 359° |
| 2026-04-30 19:14 | -23.14911 | -45.75166 | 14836 ft | 342 kts | 358° |
| 2026-04-30 19:14 | -23.12551 | -45.75384 | 15678 ft | 344 kts | 343° |
| 2026-04-30 19:15 | -23.10446 | -45.76517 | 16499 ft | 343 kts | 320° |
| 2026-04-30 19:15 | -23.07092 | -45.80262 | 18146 ft | 350 kts | 312° |
| 2026-04-30 19:15 | -23.05392 | -45.82158 | 19018 ft | 353 kts | 312° |
| 2026-04-30 19:16 | -23.03693 | -45.84047 | 19861 ft | 355 kts | 312° |
| 2026-04-30 19:16 | -23.01964 | -45.85970 | 20627 ft | 359 kts | 312° |
| 2026-04-30 19:16 | -22.98386 | -45.89807 | 22237 ft | 366 kts | 321° |
| 2026-04-30 19:17 | -22.96094 | -45.91011 | 22985 ft | 376 kts | 341° |
| 2026-04-30 19:17 | -22.90840 | -45.91997 | 24381 ft | 387 kts | 346° |
| 2026-04-30 19:17 | -22.88176 | -45.92514 | 25084 ft | 390 kts | 345° |
| 2026-04-30 19:18 | -22.83644 | -45.93218 | 26420 ft | 394 kts | 354° |
| 2026-04-30 19:18 | -22.80007 | -45.92921 | 27578 ft | 398 kts | 6° |
| 2026-04-30 19:18 | -22.77294 | -45.92264 | 28364 ft | 397 kts | 6° |
| 2026-04-30 19:19 | -22.74599 | -45.91699 | 29180 ft | 395 kts | 6° |
| 2026-04-30 19:19 | -22.71901 | -45.91142 | 29943 ft | 395 kts | 6° |
| 2026-04-30 19:19 | -22.66468 | -45.90024 | 31360 ft | 396 kts | 6° |
| 2026-04-30 19:20 | -22.63763 | -45.89467 | 32108 ft | 395 kts | 6° |
| 2026-04-30 19:20 | -22.61060 | -45.88911 | 32821 ft | 395 kts | 6° |
| 2026-04-30 19:20 | -22.55633 | -45.87796 | 34406 ft | 393 kts | 6° |
| 2026-04-30 19:21 | -22.52943 | -45.87243 | 35203 ft | 391 kts | 5° |
| 2026-04-30 19:21 | -22.47605 | -45.86148 | 36681 ft | 389 kts | 5° |
| 2026-04-30 19:22 | -22.42299 | -45.85059 | 37954 ft | 390 kts | 5° |
| 2026-04-30 19:22 | -22.34223 | -45.83406 | 39156 ft | 407 kts | 6° |
| 2026-04-30 19:23 | -22.25732 | -45.80265 | 39172 ft | 459 kts | 27° |
| 2026-04-30 19:24 | -22.20655 | -45.75801 | 39170 ft | 478 kts | 40° |
| 2026-04-30 19:24 | -22.18125 | -45.73454 | 39167 ft | 483 kts | 37° |
| 2026-04-30 19:25 | -22.05006 | -45.62075 | 39171 ft | 478 kts | 36° |
| 2026-04-30 19:26 | -21.94702 | -45.53205 | 39186 ft | 472 kts | 36° |
| 2026-04-30 19:27 | -21.86931 | -45.46526 | 39179 ft | 472 kts | 36° |
| 2026-04-30 19:28 | -21.79222 | -45.39910 | 39172 ft | 473 kts | 36° |
| 2026-04-30 19:29 | -21.68879 | -45.31048 | 39162 ft | 473 kts | 36° |
| 2026-04-30 19:30 | -21.58587 | -45.22246 | 39171 ft | 472 kts | 36° |
| 2026-04-30 19:31 | -21.48286 | -45.13452 | 39170 ft | 472 kts | 36° |
| 2026-04-30 19:31 | -21.40525 | -45.06839 | 39169 ft | 472 kts | 36° |
| 2026-04-30 19:32 | -21.35448 | -45.02517 | 39168 ft | 472 kts | 36° |
| 2026-04-30 19:32 | -21.30271 | -44.98115 | 39172 ft | 472 kts | 36° |
| 2026-04-30 19:33 | -21.25139 | -44.93754 | 39173 ft | 472 kts | 36° |
| 2026-04-30 19:33 | -21.19993 | -44.89386 | 39169 ft | 472 kts | 36° |
| 2026-04-30 19:34 | -21.14826 | -44.85003 | 39165 ft | 472 kts | 36° |
| 2026-04-30 19:35 | -21.07107 | -44.78463 | 39166 ft | 472 kts | 36° |
| 2026-04-30 19:35 | -21.01841 | -44.74268 | 39171 ft | 471 kts | 33° |
| 2026-04-30 19:36 | -20.96460 | -44.70164 | 39166 ft | 471 kts | 33° |
| 2026-04-30 19:36 | -20.88444 | -44.64044 | 39170 ft | 471 kts | 33° |
| 2026-04-30 19:37 | -20.83087 | -44.59958 | 39179 ft | 471 kts | 33° |
| 2026-04-30 19:37 | -20.77755 | -44.55894 | 39184 ft | 471 kts | 33° |
| 2026-04-30 19:38 | -20.72398 | -44.51812 | 39192 ft | 471 kts | 33° |
| 2026-04-30 19:38 | -20.67060 | -44.47748 | 39186 ft | 471 kts | 33° |
| 2026-04-30 19:39 | -20.61698 | -44.43670 | 39178 ft | 471 kts | 34° |
| 2026-04-30 19:39 | -20.56358 | -44.39611 | 39169 ft | 471 kts | 34° |
| 2026-04-30 19:40 | -20.51014 | -44.35553 | 39166 ft | 472 kts | 34° |
| 2026-04-30 19:40 | -20.45632 | -44.31470 | 39157 ft | 471 kts | 33° |
| 2026-04-30 19:41 | -20.40354 | -44.27344 | 39157 ft | 471 kts | 35° |
| 2026-04-30 19:41 | -20.35113 | -44.23184 | 39161 ft | 471 kts | 35° |
| 2026-04-30 19:42 | -20.29831 | -44.18996 | 39161 ft | 470 kts | 35° |
| 2026-04-30 19:42 | -20.24594 | -44.14848 | 39163 ft | 470 kts | 35° |
| 2026-04-30 19:43 | -20.19353 | -44.10700 | 39169 ft | 470 kts | 35° |
| 2026-04-30 19:44 | -20.11484 | -44.04479 | 39169 ft | 469 kts | 35° |
| 2026-04-30 19:44 | -20.06226 | -44.00332 | 39176 ft | 469 kts | 35° |
| 2026-04-30 19:45 | -20.00968 | -43.96192 | 39179 ft | 469 kts | 35° |
| 2026-04-30 19:45 | -19.95726 | -43.92067 | 39174 ft | 469 kts | 36° |
| 2026-04-30 19:46 | -19.91141 | -43.87158 | 39175 ft | 471 kts | 53° |
| 2026-04-30 19:46 | -19.88090 | -43.81015 | 39179 ft | 471 kts | 68° |
| 2026-04-30 19:47 | -19.86239 | -43.74408 | 39175 ft | 469 kts | 83° |
| 2026-04-30 19:47 | -19.86227 | -43.67525 | 39173 ft | 467 kts | 95° |
| 2026-04-30 19:48 | -19.85706 | -43.60693 | 39177 ft | 468 kts | 77° |
| 2026-04-30 19:48 | -19.83469 | -43.54221 | 39170 ft | 469 kts | 68° |
| 2026-04-30 19:49 | -19.80405 | -43.48115 | 39168 ft | 468 kts | 53° |
| 2026-04-30 19:49 | -19.75824 | -43.43255 | 39161 ft | 466 kts | 35° |
| 2026-04-30 19:49 | -19.73092 | -43.41448 | 39161 ft | 464 kts | 26° |
| 2026-04-30 19:50 | -19.67316 | -43.38387 | 39158 ft | 464 kts | 32° |
| 2026-04-30 19:50 | -19.62194 | -43.34184 | 39151 ft | 465 kts | 37° |
| 2026-04-30 19:51 | -19.57031 | -43.29976 | 39145 ft | 465 kts | 36° |
| 2026-04-30 19:51 | -19.51874 | -43.25800 | 39142 ft | 466 kts | 36° |
| 2026-04-30 19:52 | -19.46742 | -43.21648 | 39140 ft | 466 kts | 36° |
| 2026-04-30 19:52 | -19.41594 | -43.17487 | 39134 ft | 466 kts | 37° |
| 2026-04-30 19:53 | -19.36448 | -43.13331 | 39129 ft | 466 kts | 37° |
| 2026-04-30 19:53 | -19.31275 | -43.09157 | 39122 ft | 466 kts | 37° |
| 2026-04-30 19:54 | -19.26133 | -43.05011 | 39112 ft | 466 kts | 37° |
| 2026-04-30 19:54 | -19.20961 | -43.00844 | 39109 ft | 466 kts | 37° |
| 2026-04-30 19:55 | -19.15824 | -42.96709 | 39109 ft | 466 kts | 37° |
| 2026-04-30 19:55 | -19.10645 | -42.92543 | 39109 ft | 465 kts | 37° |
| 2026-04-30 19:56 | -19.05479 | -42.88391 | 39110 ft | 465 kts | 37° |
| 2026-04-30 19:56 | -19.00337 | -42.84262 | 39108 ft | 465 kts | 37° |
| 2026-04-30 19:57 | -18.95180 | -42.80123 | 39115 ft | 465 kts | 37° |
| 2026-04-30 19:57 | -18.90028 | -42.75994 | 39124 ft | 465 kts | 37° |
| 2026-04-30 19:58 | -18.84867 | -42.71862 | 39130 ft | 464 kts | 37° |
| 2026-04-30 19:58 | -18.79720 | -42.67743 | 39136 ft | 464 kts | 37° |
| 2026-04-30 19:59 | -18.74567 | -42.63623 | 39144 ft | 464 kts | 37° |
| 2026-04-30 20:00 | -18.66841 | -42.57452 | 39137 ft | 463 kts | 37° |
| 2026-04-30 20:00 | -18.61698 | -42.53346 | 39120 ft | 464 kts | 37° |
| 2026-04-30 20:01 | -18.53980 | -42.47192 | 39104 ft | 464 kts | 37° |
| 2026-04-30 20:01 | -18.48838 | -42.43095 | 39097 ft | 464 kts | 37° |
| 2026-04-30 20:02 | -18.41105 | -42.36940 | 39100 ft | 463 kts | 37° |
| 2026-04-30 20:03 | -18.33385 | -42.30802 | 39101 ft | 463 kts | 37° |
| 2026-04-30 20:03 | -18.28238 | -42.26716 | 39110 ft | 462 kts | 37° |
| 2026-04-30 20:04 | -18.23119 | -42.22654 | 39107 ft | 462 kts | 37° |
| 2026-04-30 20:05 | -18.15394 | -42.16531 | 39085 ft | 462 kts | 37° |
| 2026-04-30 20:05 | -18.07658 | -42.10406 | 39077 ft | 462 kts | 37° |
| 2026-04-30 20:06 | -18.02521 | -42.06343 | 39073 ft | 462 kts | 37° |
| 2026-04-30 20:06 | -17.97410 | -42.02303 | 39074 ft | 461 kts | 37° |
| 2026-04-30 20:07 | -17.92275 | -41.98247 | 39085 ft | 461 kts | 37° |
| 2026-04-30 20:08 | -17.84724 | -41.92288 | 39103 ft | 461 kts | 37° |
| 2026-04-30 20:08 | -17.79602 | -41.88251 | 39110 ft | 460 kts | 37° |
| 2026-04-30 20:09 | -17.74496 | -41.84228 | 39114 ft | 460 kts | 37° |
| 2026-04-30 20:09 | -17.66800 | -41.78170 | 39105 ft | 460 kts | 37° |
| 2026-04-30 20:10 | -17.59119 | -41.72132 | 39098 ft | 460 kts | 37° |
| 2026-04-30 20:11 | -17.51434 | -41.66096 | 39089 ft | 460 kts | 37° |
| 2026-04-30 20:11 | -17.46295 | -41.62064 | 39085 ft | 460 kts | 37° |
| 2026-04-30 20:12 | -17.38615 | -41.56043 | 39085 ft | 460 kts | 37° |
| 2026-04-30 20:13 | -17.33478 | -41.52018 | 39086 ft | 460 kts | 37° |
| 2026-04-30 20:13 | -17.28349 | -41.48003 | 39090 ft | 460 kts | 38° |
| 2026-04-30 20:14 | -17.23205 | -41.43978 | 39096 ft | 460 kts | 38° |
| 2026-04-30 20:14 | -17.18090 | -41.39980 | 39098 ft | 460 kts | 38° |
| 2026-04-30 20:15 | -17.12956 | -41.35968 | 39100 ft | 460 kts | 38° |
| 2026-04-30 20:15 | -17.07799 | -41.31943 | 39098 ft | 460 kts | 37° |
| 2026-04-30 20:16 | -17.02666 | -41.27938 | 39100 ft | 459 kts | 37° |
| 2026-04-30 20:16 | -16.97952 | -41.24263 | 39103 ft | 459 kts | 37° |
| 2026-04-30 20:17 | -16.92815 | -41.20260 | 39096 ft | 459 kts | 37° |
| 2026-04-30 20:17 | -16.87647 | -41.16237 | 39089 ft | 459 kts | 38° |
| 2026-04-30 20:18 | -16.82527 | -41.12254 | 39091 ft | 459 kts | 38° |
| 2026-04-30 20:18 | -16.77408 | -41.08273 | 39091 ft | 459 kts | 38° |
| 2026-04-30 20:19 | -16.72296 | -41.04302 | 39088 ft | 459 kts | 38° |
| 2026-04-30 20:19 | -16.67139 | -41.00297 | 39094 ft | 458 kts | 38° |
| 2026-04-30 20:20 | -16.62045 | -40.96346 | 39099 ft | 458 kts | 38° |
| 2026-04-30 20:20 | -16.56901 | -40.92358 | 39106 ft | 458 kts | 38° |
| 2026-04-30 20:21 | -16.51795 | -40.88401 | 39105 ft | 458 kts | 38° |
| 2026-04-30 20:21 | -16.46678 | -40.84439 | 39096 ft | 458 kts | 38° |
| 2026-04-30 20:22 | -16.41521 | -40.80448 | 39089 ft | 464 kts | 38° |
| 2026-04-30 20:22 | -16.36295 | -40.76408 | 39083 ft | 470 kts | 38° |
| 2026-04-30 20:23 | -16.31030 | -40.72339 | 39068 ft | 472 kts | 38° |
| 2026-04-30 20:23 | -16.25755 | -40.68266 | 39062 ft | 470 kts | 38° |
| 2026-04-30 20:24 | -16.20518 | -40.64225 | 39060 ft | 469 kts | 38° |
| 2026-04-30 20:24 | -16.15293 | -40.60196 | 39067 ft | 467 kts | 38° |
| 2026-04-30 20:25 | -16.07435 | -40.54141 | 39070 ft | 466 kts | 38° |
| 2026-04-30 20:26 | -15.99633 | -40.48135 | 39073 ft | 464 kts | 38° |
| 2026-04-30 20:26 | -15.91864 | -40.42165 | 39076 ft | 463 kts | 38° |
| 2026-04-30 20:27 | -15.81455 | -40.34181 | 39071 ft | 462 kts | 38° |
| 2026-04-30 20:28 | -15.71096 | -40.26245 | 39064 ft | 461 kts | 38° |
| 2026-04-30 20:30 | -15.58184 | -40.16367 | 39062 ft | 460 kts | 38° |
| 2026-04-30 20:31 | -15.42719 | -40.04584 | 39040 ft | 460 kts | 38° |
| 2026-04-30 20:32 | -15.29833 | -39.94782 | 39042 ft | 459 kts | 38° |
| 2026-04-30 20:33 | -15.22088 | -39.88898 | 39043 ft | 458 kts | 38° |
| 2026-04-30 20:34 | -15.14328 | -39.83009 | 39040 ft | 458 kts | 38° |
| 2026-04-30 20:35 | -15.06586 | -39.77137 | 39035 ft | 458 kts | 39° |
| 2026-04-30 20:35 | -14.98863 | -39.71286 | 39034 ft | 457 kts | 39° |
| 2026-04-30 20:36 | -14.93718 | -39.67409 | 39034 ft | 457 kts | 38° |
| 2026-04-30 20:37 | -14.85976 | -39.61579 | 39019 ft | 457 kts | 38° |
| 2026-04-30 20:37 | -14.80821 | -39.57700 | 39016 ft | 456 kts | 39° |
| 2026-04-30 20:38 | -14.75694 | -39.53845 | 39010 ft | 456 kts | 39° |
| 2026-04-30 20:38 | -14.70565 | -39.49989 | 39005 ft | 455 kts | 39° |
| 2026-04-30 20:39 | -14.62855 | -39.44199 | 39004 ft | 455 kts | 39° |
| 2026-04-30 20:40 | -14.55172 | -39.38434 | 39002 ft | 454 kts | 39° |
| 2026-04-30 20:40 | -14.50051 | -39.34595 | 39004 ft | 454 kts | 39° |
| 2026-04-30 20:41 | -14.42369 | -39.28839 | 39002 ft | 454 kts | 39° |
| 2026-04-30 20:41 | -14.37265 | -39.25017 | 39001 ft | 454 kts | 39° |
| 2026-04-30 20:42 | -14.32144 | -39.21186 | 38997 ft | 454 kts | 39° |
| 2026-04-30 20:43 | -14.24460 | -39.15441 | 38992 ft | 452 kts | 39° |
| 2026-04-30 20:43 | -14.19385 | -39.11648 | 38995 ft | 451 kts | 39° |
| 2026-04-30 20:44 | -14.11738 | -39.05938 | 38991 ft | 450 kts | 39° |
| 2026-04-30 20:45 | -14.01623 | -38.98393 | 38987 ft | 448 kts | 39° |
| 2026-04-30 20:45 | -13.96586 | -38.94639 | 38988 ft | 448 kts | 39° |
| 2026-04-30 20:46 | -13.86459 | -38.87097 | 38977 ft | 446 kts | 39° |
| 2026-04-30 20:47 | -13.78927 | -38.81494 | 38975 ft | 445 kts | 39° |
| 2026-04-30 20:48 | -13.71399 | -38.75898 | 38978 ft | 444 kts | 39° |
| 2026-04-30 20:48 | -13.66378 | -38.72168 | 38974 ft | 444 kts | 39° |
| 2026-04-30 20:49 | -13.61363 | -38.68444 | 38974 ft | 443 kts | 39° |
| 2026-04-30 20:50 | -13.53871 | -38.62885 | 38967 ft | 443 kts | 39° |
| 2026-04-30 20:50 | -13.48861 | -38.59170 | 38965 ft | 442 kts | 39° |
| 2026-04-30 20:51 | -13.43856 | -38.55461 | 38964 ft | 442 kts | 39° |
| 2026-04-30 20:51 | -13.36359 | -38.49909 | 38963 ft | 442 kts | 39° |
| 2026-04-30 20:52 | -13.31366 | -38.46214 | 38964 ft | 441 kts | 39° |
| 2026-04-30 20:53 | -13.23890 | -38.40683 | 38963 ft | 441 kts | 39° |
| 2026-04-30 20:53 | -13.18927 | -38.37015 | 38964 ft | 441 kts | 39° |
| 2026-04-30 20:54 | -13.11425 | -38.31473 | 38969 ft | 441 kts | 38° |
| 2026-04-30 20:55 | -13.03943 | -38.25951 | 38972 ft | 441 kts | 39° |
| 2026-04-30 20:55 | -12.98956 | -38.22273 | 38977 ft | 441 kts | 39° |
| 2026-04-30 20:56 | -12.91496 | -38.16775 | 38982 ft | 442 kts | 38° |
| 2026-04-30 20:57 | -12.83974 | -38.11235 | 38983 ft | 442 kts | 38° |
| 2026-04-30 20:57 | -12.78974 | -38.07556 | 38984 ft | 441 kts | 38° |
| 2026-04-30 20:58 | -12.71484 | -38.02046 | 38986 ft | 441 kts | 38° |
| 2026-04-30 20:58 | -12.66483 | -37.98370 | 38986 ft | 441 kts | 38° |
| 2026-04-30 20:59 | -12.58998 | -37.92871 | 38986 ft | 441 kts | 38° |
| 2026-04-30 21:00 | -12.49029 | -37.85554 | 38976 ft | 441 kts | 38° |
| 2026-04-30 21:01 | -12.41553 | -37.80071 | 38977 ft | 441 kts | 38° |
| 2026-04-30 21:02 | -12.34053 | -37.74574 | 38975 ft | 440 kts | 38° |
| 2026-04-30 21:02 | -12.29061 | -37.70918 | 38976 ft | 440 kts | 38° |
| 2026-04-30 21:03 | -12.24073 | -37.67266 | 38977 ft | 440 kts | 38° |
| 2026-04-30 21:03 | -12.19063 | -37.63600 | 38978 ft | 440 kts | 38° |
| 2026-04-30 21:04 | -12.14048 | -37.59932 | 38977 ft | 441 kts | 38° |
| 2026-04-30 21:04 | -12.06575 | -37.54470 | 38975 ft | 441 kts | 38° |
| 2026-04-30 21:05 | -12.01561 | -37.50807 | 38977 ft | 441 kts | 38° |
| 2026-04-30 21:05 | -11.96561 | -37.47156 | 38973 ft | 441 kts | 38° |
| 2026-04-30 21:06 | -11.91564 | -37.43512 | 38971 ft | 441 kts | 38° |
| 2026-04-30 21:06 | -11.86503 | -37.39846 | 38969 ft | 441 kts | 38° |
| 2026-04-30 21:07 | -11.81474 | -37.36202 | 38959 ft | 442 kts | 38° |
| 2026-04-30 21:07 | -11.76481 | -37.32587 | 38953 ft | 442 kts | 38° |
| 2026-04-30 21:08 | -11.71434 | -37.28934 | 38959 ft | 442 kts | 38° |
| 2026-04-30 21:08 | -11.66405 | -37.25296 | 38962 ft | 442 kts | 38° |
| 2026-04-30 21:09 | -11.61411 | -37.21685 | 38961 ft | 442 kts | 38° |
| 2026-04-30 21:09 | -11.56380 | -37.18048 | 38958 ft | 442 kts | 38° |
| 2026-04-30 21:10 | -11.51343 | -37.14409 | 38957 ft | 442 kts | 37° |
| 2026-04-30 21:10 | -11.46309 | -37.10775 | 38958 ft | 442 kts | 37° |
| 2026-04-30 21:11 | -11.41272 | -37.07139 | 38953 ft | 442 kts | 37° |
| 2026-04-30 21:11 | -11.36241 | -37.03509 | 38953 ft | 442 kts | 38° |
| 2026-04-30 21:12 | -11.31209 | -36.99880 | 38951 ft | 442 kts | 37° |
| 2026-04-30 21:12 | -11.26183 | -36.96257 | 38952 ft | 443 kts | 37° |
| 2026-04-30 21:13 | -11.21154 | -36.92633 | 38951 ft | 443 kts | 37° |
| 2026-04-30 21:13 | -11.16116 | -36.89005 | 38948 ft | 443 kts | 37° |
| 2026-04-30 21:14 | -11.11081 | -36.85380 | 38949 ft | 444 kts | 37° |
| 2026-04-30 21:14 | -11.05995 | -36.81721 | 38946 ft | 444 kts | 37° |
| 2026-04-30 21:15 | -11.00947 | -36.78089 | 38944 ft | 445 kts | 37° |
| 2026-04-30 21:15 | -10.95888 | -36.74452 | 38945 ft | 445 kts | 37° |
| 2026-04-30 21:16 | -10.90836 | -36.70821 | 38944 ft | 445 kts | 37° |
| 2026-04-30 21:16 | -10.85725 | -36.67149 | 38944 ft | 445 kts | 37° |
| 2026-04-30 21:17 | -10.80658 | -36.63524 | 38943 ft | 445 kts | 36° |
| 2026-04-30 21:17 | -10.75575 | -36.59904 | 38942 ft | 445 kts | 36° |
| 2026-04-30 21:18 | -10.70519 | -36.56305 | 38951 ft | 445 kts | 36° |
| 2026-04-30 21:18 | -10.65430 | -36.52683 | 38958 ft | 445 kts | 36° |
| 2026-04-30 21:19 | -10.60349 | -36.49068 | 38956 ft | 445 kts | 36° |
| 2026-04-30 21:19 | -10.55262 | -36.45451 | 38955 ft | 445 kts | 36° |
| 2026-04-30 21:20 | -10.50176 | -36.41836 | 38955 ft | 445 kts | 36° |
| 2026-04-30 21:20 | -10.45069 | -36.38207 | 38953 ft | 445 kts | 36° |
| 2026-04-30 21:21 | -10.40001 | -36.34609 | 38956 ft | 445 kts | 36° |
| 2026-04-30 21:22 | -10.32364 | -36.29187 | 38952 ft | 446 kts | 35° |
| 2026-04-30 21:23 | -10.22189 | -36.21970 | 38949 ft | 446 kts | 35° |
| 2026-04-30 21:23 | -10.14534 | -36.16544 | 38952 ft | 446 kts | 35° |
| 2026-04-30 21:24 | -10.09408 | -36.12912 | 38954 ft | 447 kts | 35° |
| 2026-04-30 21:24 | -10.04310 | -36.09301 | 38952 ft | 447 kts | 35° |
| 2026-04-30 21:25 | -9.96656 | -36.03883 | 38951 ft | 448 kts | 35° |
| 2026-04-30 21:26 | -9.88963 | -35.98441 | 38953 ft | 448 kts | 35° |
| 2026-04-30 21:27 | -9.81267 | -35.92999 | 38956 ft | 448 kts | 35° |
| 2026-04-30 21:27 | -9.76125 | -35.89366 | 38958 ft | 448 kts | 35° |
| 2026-04-30 21:28 | -9.68453 | -35.83946 | 38958 ft | 447 kts | 35° |
| 2026-04-30 21:29 | -9.60811 | -35.78551 | 38955 ft | 446 kts | 34° |
| 2026-04-30 21:30 | -9.48084 | -35.69573 | 38958 ft | 444 kts | 34° |
| 2026-04-30 21:31 | -9.35347 | -35.60596 | 38965 ft | 444 kts | 34° |
| 2026-04-30 21:32 | -9.27750 | -35.55246 | 38964 ft | 444 kts | 34° |
| 2026-04-30 21:32 | -9.22665 | -35.51666 | 38958 ft | 444 kts | 34° |
| 2026-04-30 21:33 | -9.15017 | -35.46286 | 38958 ft | 444 kts | 34° |
| 2026-04-30 21:34 | -9.09918 | -35.42699 | 38959 ft | 445 kts | 34° |
| 2026-04-30 21:34 | -9.02266 | -35.37320 | 38955 ft | 445 kts | 34° |
| 2026-04-30 21:35 | -8.97202 | -35.33762 | 38956 ft | 445 kts | 33° |
| 2026-04-30 21:35 | -8.92084 | -35.30168 | 38953 ft | 445 kts | 33° |
| 2026-04-30 21:36 | -8.86984 | -35.26587 | 38957 ft | 445 kts | 33° |
| 2026-04-30 21:37 | -8.76819 | -35.19452 | 38947 ft | 435 kts | 33° |
| 2026-04-30 21:37 | -8.74371 | -35.17734 | 38644 ft | 424 kts | 33° |
| 2026-04-30 21:37 | -8.71958 | -35.16042 | 37528 ft | 425 kts | 33° |
| 2026-04-30 21:38 | -8.69496 | -35.14316 | 36209 ft | 431 kts | 34° |
| 2026-04-30 21:38 | -8.67028 | -35.12585 | 35341 ft | 432 kts | 34° |
| 2026-04-30 21:38 | -8.64584 | -35.10871 | 34706 ft | 427 kts | 34° |
| 2026-04-30 21:38 | -8.62157 | -35.09170 | 34037 ft | 423 kts | 34° |
| 2026-04-30 21:39 | -8.59737 | -35.07474 | 33240 ft | 422 kts | 34° |
| 2026-04-30 21:39 | -8.57323 | -35.05783 | 32472 ft | 421 kts | 35° |
| 2026-04-30 21:39 | -8.54925 | -35.04103 | 31759 ft | 419 kts | 35° |
| 2026-04-30 21:39 | -8.52526 | -35.02422 | 31020 ft | 417 kts | 36° |
| 2026-04-30 21:40 | -8.50157 | -35.00763 | 30174 ft | 412 kts | 36° |
| 2026-04-30 21:40 | -8.47813 | -34.99121 | 29327 ft | 406 kts | 37° |
| 2026-04-30 21:40 | -8.45512 | -34.97510 | 28496 ft | 401 kts | 37° |
| 2026-04-30 21:40 | -8.43245 | -34.95923 | 27611 ft | 398 kts | 37° |
| 2026-04-30 21:41 | -8.40988 | -34.94342 | 26615 ft | 397 kts | 37° |
| 2026-04-30 21:41 | -8.38721 | -34.92756 | 25620 ft | 395 kts | 37° |
| 2026-04-30 21:41 | -8.36461 | -34.91174 | 24625 ft | 394 kts | 37° |
| 2026-04-30 21:41 | -8.34239 | -34.89619 | 23680 ft | 390 kts | 37° |
| 2026-04-30 21:42 | -8.32052 | -34.88090 | 23154 ft | 376 kts | 38° |
| 2026-04-30 21:42 | -8.29916 | -34.86595 | 22496 ft | 367 kts | 38° |
| 2026-04-30 21:42 | -8.27834 | -34.85140 | 21781 ft | 359 kts | 38° |
| 2026-04-30 21:42 | -8.25797 | -34.83715 | 21087 ft | 354 kts | 38° |
| 2026-04-30 21:43 | -8.23798 | -34.82317 | 20385 ft | 350 kts | 38° |
| 2026-04-30 21:43 | -8.21798 | -34.80918 | 19679 ft | 347 kts | 38° |
| 2026-04-30 21:43 | -8.19838 | -34.79548 | 19164 ft | 337 kts | 38° |
| 2026-04-30 21:43 | -8.17793 | -34.78421 | 18678 ft | 334 kts | 21° |
| 2026-04-30 21:44 | -8.15492 | -34.78117 | 18213 ft | 332 kts | 6° |
| 2026-04-30 21:44 | -8.13191 | -34.78038 | 17742 ft | 326 kts | 6° |
| 2026-04-30 21:44 | -8.10943 | -34.77959 | 17271 ft | 320 kts | 6° |
| 2026-04-30 21:44 | -8.08714 | -34.77881 | 16807 ft | 316 kts | 6° |
| 2026-04-30 21:45 | -8.06529 | -34.77806 | 16334 ft | 312 kts | 6° |
| 2026-04-30 21:45 | -8.04399 | -34.77734 | 15827 ft | 299 kts | 6° |
| 2026-04-30 21:45 | -8.02389 | -34.77666 | 15320 ft | 283 kts | 6° |
| 2026-04-30 21:45 | -8.00442 | -34.77599 | 14843 ft | 270 kts | 7° |
| 2026-04-30 21:46 | -7.98610 | -34.77536 | 14365 ft | 260 kts | 6° |
| 2026-04-30 21:46 | -7.96821 | -34.77475 | 13882 ft | 252 kts | 6° |
| 2026-04-30 21:46 | -7.95074 | -34.77415 | 13407 ft | 246 kts | 6° |
| 2026-04-30 21:46 | -7.93385 | -34.77357 | 12936 ft | 241 kts | 6° |
| 2026-04-30 21:47 | -7.91714 | -34.77300 | 12467 ft | 238 kts | 6° |
| 2026-04-30 21:47 | -7.90062 | -34.77243 | 11948 ft | 238 kts | 7° |
| 2026-04-30 21:47 | -7.88339 | -34.77181 | 11039 ft | 258 kts | 6° |
| 2026-04-30 21:47 | -7.86471 | -34.77116 | 10235 ft | 275 kts | 6° |
| 2026-04-30 21:48 | -7.84586 | -34.77054 | 9943 ft | 269 kts | 6° |
| 2026-04-30 21:48 | -7.82724 | -34.76991 | 9694 ft | 262 kts | 6° |
| 2026-04-30 21:48 | -7.80894 | -34.76929 | 9496 ft | 263 kts | 6° |
| 2026-04-30 21:48 | -7.79041 | -34.76865 | 9309 ft | 268 kts | 6° |
| 2026-04-30 21:49 | -7.77138 | -34.76800 | 9078 ft | 273 kts | 6° |
| 2026-04-30 21:49 | -7.75220 | -34.76734 | 8839 ft | 277 kts | 6° |
| 2026-04-30 21:49 | -7.73283 | -34.76668 | 8593 ft | 275 kts | 6° |
| 2026-04-30 21:49 | -7.71403 | -34.76605 | 8351 ft | 269 kts | 6° |
| 2026-04-30 21:50 | -7.69528 | -34.76541 | 8109 ft | 264 kts | 6° |
| 2026-04-30 21:50 | -7.67705 | -34.76479 | 7865 ft | 260 kts | 6° |
| 2026-04-30 21:50 | -7.65898 | -34.76417 | 7569 ft | 260 kts | 6° |
| 2026-04-30 21:50 | -7.64074 | -34.76354 | 7287 ft | 261 kts | 6° |
| 2026-04-30 21:51 | -7.62220 | -34.76290 | 7008 ft | 269 kts | 6° |
| 2026-04-30 21:51 | -7.60328 | -34.76225 | 6723 ft | 273 kts | 6° |
| 2026-04-30 21:51 | -7.58396 | -34.76160 | 6430 ft | 276 kts | 6° |
| 2026-04-30 21:51 | -7.56449 | -34.76093 | 6142 ft | 278 kts | 6° |
| 2026-04-30 21:52 | -7.54511 | -34.76027 | 5850 ft | 280 kts | 6° |
| 2026-04-30 21:52 | -7.52556 | -34.75961 | 5591 ft | 279 kts | 6° |
| 2026-04-30 21:52 | -7.50618 | -34.75895 | 5342 ft | 274 kts | 6° |
| 2026-04-30 21:52 | -7.48718 | -34.75830 | 5099 ft | 270 kts | 6° |
| 2026-04-30 21:53 | -7.46830 | -34.75766 | 4869 ft | 266 kts | 6° |
| 2026-04-30 21:53 | -7.44997 | -34.75703 | 4673 ft | 261 kts | 6° |
| 2026-04-30 21:53 | -7.43184 | -34.75641 | 4474 ft | 257 kts | 6° |
| 2026-04-30 21:53 | -7.41736 | -34.75592 | 4312 ft | 255 kts | 7° |
| 2026-04-30 21:54 | -7.41277 | -34.75576 | 4261 ft | 254 kts | 6° |
| 2026-04-30 21:54 | -7.40624 | -34.75554 | 4190 ft | 253 kts | 7° |
| 2026-04-30 21:54 | -7.38868 | -34.75494 | 3993 ft | 251 kts | 6° |
| 2026-04-30 21:54 | -7.37131 | -34.75435 | 3781 ft | 249 kts | 6° |
| 2026-04-30 21:55 | -7.35357 | -34.75438 | 3558 ft | 257 kts | 355° |
| 2026-04-30 21:55 | -7.33714 | -34.76178 | 3351 ft | 265 kts | 322° |
| 2026-04-30 21:55 | -7.32437 | -34.77526 | 3165 ft | 264 kts | 316° |
| 2026-04-30 21:55 | -7.31164 | -34.78821 | 2968 ft | 259 kts | 317° |
| 2026-04-30 21:56 | -7.29902 | -34.80085 | 2865 ft | 247 kts | 317° |
| 2026-04-30 21:56 | -7.28705 | -34.81278 | 2744 ft | 232 kts | 317° |
| 2026-04-30 21:56 | -7.27585 | -34.82394 | 2611 ft | 221 kts | 317° |
| 2026-04-30 21:56 | -7.26516 | -34.83456 | 2483 ft | 213 kts | 317° |
| 2026-04-30 21:57 | -7.25466 | -34.84501 | 2347 ft | 205 kts | 317° |
| 2026-04-30 21:57 | -7.24472 | -34.85489 | 2215 ft | 200 kts | 317° |
| 2026-04-30 21:57 | -7.23478 | -34.86476 | 2093 ft | 196 kts | 317° |
| 2026-04-30 21:57 | -7.22498 | -34.87450 | 2009 ft | 200 kts | 317° |
| 2026-04-30 21:58 | -7.21508 | -34.88437 | 2003 ft | 201 kts | 316° |
| 2026-04-30 21:58 | -7.20520 | -34.89422 | 2011 ft | 192 kts | 317° |
| 2026-04-30 21:58 | -7.19656 | -34.90297 | 1907 ft | 164 kts | 316° |
| 2026-04-30 21:58 | -7.19423 | -34.90536 | 1809 ft | 163 kts | 316° |
| 2026-04-30 21:59 | -7.19319 | -34.90642 | 1742 ft | 164 kts | 316° |
| 2026-04-30 21:59 | -7.18523 | -34.91427 | 1382 ft | 154 kts | 317° |
| 2026-04-30 21:59 | -7.17779 | -34.92151 | 1030 ft | 144 kts | 315° |
| 2026-04-30 22:00 | -7.16423 | -34.93515 | 501 ft | 138 kts | 314° |
| 2026-04-30 22:00 | -7.15154 | -34.94778 | 218 ft | 106 kts | 316° |
| 2026-04-30 22:00 | -7.14737 | -34.95188 | 218 ft | 54 kts | 316° |
| 2026-04-30 22:01 | -7.14605 | -34.95322 | 218 ft | 14 kts | 314° |
| 2026-04-30 22:01 | -7.14556 | -34.95355 | 218 ft | 2 kts | 284° |
| 2026-04-30 22:01 | -7.14583 | -34.95343 | 218 ft | 9 kts | 134° |
| 2026-04-30 22:01 | -7.14641 | -34.95286 | 218 ft | 14 kts | 135° |
| 2026-04-30 22:02 | -7.14722 | -34.95206 | 218 ft | 18 kts | 136° |
| 2026-04-30 22:02 | -7.14799 | -34.95128 | 218 ft | 7 kts | 133° |
| 2026-04-30 22:02 | -7.14794 | -34.95076 | 218 ft | 8 kts | 48° |
| 2026-04-30 22:02 | -7.14759 | -34.95045 | 218 ft | 7 kts | 42° |
| 2026-04-30 22:03 | -7.14725 | -34.95009 | 218 ft | 6 kts | 50° |
| 2026-04-30 22:03 | -7.14735 | -34.94960 | 218 ft | 8 kts | 135° |
| 2026-04-30 22:03 | -7.14776 | -34.94917 | 218 ft | 4 kts | 133° |
| 2026-04-30 22:03 | -7.14777 | -34.94874 | 218 ft | 8 kts | 60° |
| 2026-04-30 22:04 | -7.14764 | -34.94841 | 218 ft | 1 kts | 71° |
| 2026-04-30 22:04 | -7.14749 | -34.94814 | 218 ft | 4 kts | 48° |
| 2026-04-30 22:04 | -7.14733 | -34.94798 | 218 ft | 0 kts | 44° |